createdAt,value
2022-11-02T00:02:03.250Z,100986.63
2022-11-02T00:04:53.196Z,100981.41
2022-11-02T00:07:43.010Z,100981.59
2022-11-02T00:10:32.411Z,100985.97
2022-11-02T00:13:21.845Z,100988.16
2022-11-02T00:16:15.432Z,100984.44
2022-11-02T00:19:05.625Z,100980.91
2022-11-02T00:21:57.869Z,100986.31
2022-11-02T00:24:47.098Z,100989.47
2022-11-02T00:27:37.509Z,100989.13
2022-11-02T00:30:27.251Z,100992.00
2022-11-02T00:33:16.289Z,100987.81
2022-11-02T00:36:05.298Z,100993.50
2022-11-02T00:38:55.421Z,100991.31
2022-11-02T00:41:44.633Z,100996.84
2022-11-02T00:44:34.637Z,100992.97
2022-11-02T00:47:24.427Z,100990.28
2022-11-02T00:50:15.153Z,100997.00
2022-11-02T00:53:04.298Z,100985.91
2022-11-02T00:55:54.864Z,100986.22
2022-11-02T00:58:44.161Z,100991.63
2022-11-02T01:01:33.968Z,100989.78
2022-11-02T01:04:23.794Z,100986.59
2022-11-02T01:07:18.645Z,100987.47
2022-11-02T01:10:09.732Z,100990.47
2022-11-02T01:12:58.694Z,100986.81
2022-11-02T01:15:48.179Z,100981.22
2022-11-02T01:18:37.343Z,100989.28
2022-11-02T01:21:26.747Z,100977.84
2022-11-02T01:24:18.699Z,100979.84
2022-11-02T01:27:07.490Z,100988.47
2022-11-02T01:29:56.670Z,100995.00
2022-11-02T01:32:46.597Z,100992.94
2022-11-02T01:35:39.141Z,100994.13
2022-11-02T01:38:28.380Z,100992.75
2022-11-02T01:41:18.981Z,100999.81
2022-11-02T01:44:32.131Z,100992.56
2022-11-02T01:47:27.148Z,100994.25
2022-11-02T01:50:27.621Z,100997.63
2022-11-02T01:53:16.851Z,100989.97
2022-11-02T01:56:07.626Z,100987.22
2022-11-02T01:59:01.696Z,100992.78
2022-11-02T02:01:51.782Z,100988.72
2022-11-02T02:04:41.613Z,100989.09
2022-11-02T02:07:32.829Z,100991.38
2022-11-02T02:10:21.790Z,100997.09
2022-11-02T02:13:11.046Z,100990.72
2022-11-02T02:16:20.727Z,100985.53
2022-11-02T02:19:45.415Z,100983.16
2022-11-02T02:22:47.849Z,100976.06
2022-11-02T02:25:55.448Z,100977.41
2022-11-02T02:29:15.729Z,100964.22
2022-11-02T02:32:13.681Z,100965.53
2022-11-02T02:35:35.631Z,100971.53
2022-11-02T02:38:36.349Z,100962.47
2022-11-02T02:41:40.397Z,100964.47
2022-11-02T02:44:32.991Z,100968.66
2022-11-02T02:47:25.321Z,100967.09
2022-11-02T02:50:23.541Z,100964.38
2022-11-02T02:53:14.098Z,100963.00
2022-11-02T02:56:07.093Z,100962.06
2022-11-02T02:59:06.550Z,100960.28
2022-11-02T03:01:56.794Z,100949.13
2022-11-02T03:04:46.607Z,100955.81
2022-11-02T03:07:36.179Z,100958.81
2022-11-02T03:10:51.714Z,100946.91
2022-11-02T03:13:52.279Z,100946.91
2022-11-02T03:17:13.345Z,100944.22
2022-11-02T03:20:35.073Z,100927.75
2022-11-02T03:23:32.412Z,100927.38
2022-11-02T03:26:44.671Z,100920.38
2022-11-02T03:30:00.967Z,100919.38
2022-11-02T03:33:10.330Z,100921.72
2022-11-02T03:36:09.588Z,100915.00
2022-11-02T03:39:03.194Z,100910.81
2022-11-02T03:41:53.071Z,100912.22
2022-11-02T03:44:43.468Z,100903.81
2022-11-02T03:47:35.298Z,100888.31
2022-11-02T03:50:28.917Z,100886.00
2022-11-02T03:53:42.016Z,100889.88
2022-11-02T03:56:39.780Z,100884.38
2022-11-02T04:03:45.953Z,100872.81
2022-11-02T04:06:35.752Z,100873.88
2022-11-02T04:09:29.698Z,100868.53
2022-11-02T04:12:38.837Z,100871.47
2022-11-02T04:15:29.444Z,100854.06
2022-11-02T04:18:37.011Z,100849.53
2022-11-02T04:21:26.441Z,100846.19
2022-11-02T04:24:35.522Z,100849.16
2022-11-02T04:27:24.975Z,100851.09
2022-11-02T04:30:17.335Z,100847.59
2022-11-02T04:33:24.937Z,100854.47
2022-11-02T04:36:24.208Z,100850.53
2022-11-02T04:39:17.651Z,100854.75
2022-11-02T04:42:07.003Z,100853.56
2022-11-02T04:45:04.090Z,100855.63
2022-11-02T04:48:13.680Z,100850.03
2022-11-02T04:51:02.629Z,100841.09
2022-11-02T04:53:54.708Z,100840.88
2022-11-02T04:56:45.148Z,100833.66
2022-11-02T04:59:34.893Z,100823.66
2022-11-02T05:02:25.240Z,100814.09
2022-11-02T05:05:14.472Z,100808.03
2022-11-02T05:08:05.028Z,100811.81
2022-11-02T05:10:58.473Z,100801.63
2022-11-02T05:13:49.644Z,100802.88
2022-11-02T05:16:41.010Z,100790.38
2022-11-02T05:19:32.583Z,100784.53
2022-11-02T05:22:24.800Z,100783.72
2022-11-02T05:25:15.578Z,100779.56
2022-11-02T05:28:04.503Z,100767.66
2022-11-02T05:30:54.488Z,100770.19
2022-11-02T05:33:43.928Z,100765.78
2022-11-02T05:36:36.623Z,100762.88
2022-11-02T05:39:25.835Z,100759.97
2022-11-02T05:42:15.951Z,100753.03
2022-11-02T05:45:05.440Z,100765.31
2022-11-02T05:47:54.775Z,100762.81
2022-11-02T05:50:43.176Z,100749.47
2022-11-02T05:53:34.666Z,100745.28
2022-11-02T05:56:25.185Z,100744.69
2022-11-02T05:59:14.352Z,100741.34
2022-11-02T06:02:03.731Z,100744.88
2022-11-02T06:04:53.273Z,100744.47
2022-11-02T06:07:42.801Z,100743.22
2022-11-02T06:10:32.632Z,100746.63
2022-11-02T06:13:21.879Z,100746.22
2022-11-02T06:16:12.335Z,100746.59
2022-11-02T06:19:01.165Z,100754.09
2022-11-02T06:21:50.451Z,100753.28
2022-11-02T06:24:39.678Z,100747.00
2022-11-02T06:27:28.287Z,100735.94
2022-11-02T06:30:17.502Z,100746.16
2022-11-02T06:33:07.360Z,100749.28
2022-11-02T06:35:57.542Z,100745.28
2022-11-02T06:38:47.038Z,100747.75
2022-11-02T06:41:36.303Z,100742.75
2022-11-02T06:44:25.520Z,100740.28
2022-11-02T06:47:14.920Z,100744.38
2022-11-02T06:50:09.308Z,100742.53
2022-11-02T06:52:58.173Z,100743.34
2022-11-02T06:55:47.789Z,100753.56
2022-11-02T06:58:36.779Z,100750.63
2022-11-02T07:01:28.913Z,100752.69
2022-11-02T07:04:18.158Z,100752.06
2022-11-02T07:07:07.522Z,100747.91
2022-11-02T07:09:59.046Z,100740.19
2022-11-02T07:12:48.164Z,100747.06
2022-11-02T07:15:38.173Z,100748.50
2022-11-02T07:18:28.427Z,100744.13
2022-11-02T07:24:09.202Z,100739.75
2022-11-02T07:26:59.317Z,100740.56
2022-11-02T07:29:48.551Z,100740.97
2022-11-02T07:32:44.869Z,100752.84
2022-11-02T07:35:35.209Z,100749.66
2022-11-02T07:38:24.056Z,100743.44
2022-11-02T07:41:13.114Z,100744.66
2022-11-02T07:44:02.637Z,100744.47
2022-11-02T07:46:55.597Z,100750.94
2022-11-02T07:49:44.536Z,100753.00
2022-11-02T07:52:33.723Z,100761.75
2022-11-02T07:55:30.812Z,100761.50
2022-11-02T07:58:20.760Z,100763.19
2022-11-02T08:01:10.474Z,100765.91
2022-11-02T08:03:59.803Z,100767.13
2022-11-02T08:06:49.427Z,100762.94
2022-11-02T08:09:38.066Z,100761.69
2022-11-02T08:12:27.845Z,100770.22
2022-11-02T08:15:16.995Z,100766.69
2022-11-02T08:18:13.711Z,100755.41
2022-11-02T08:21:03.088Z,100768.13
2022-11-02T08:23:58.221Z,100765.44
2022-11-02T08:26:49.681Z,100767.50
2022-11-02T08:29:43.520Z,100767.50
2022-11-02T08:32:32.892Z,100780.00
2022-11-02T08:35:22.632Z,100780.38
2022-11-02T08:38:11.645Z,100787.66
2022-11-02T08:41:01.920Z,100792.25
2022-11-02T08:43:50.755Z,100799.50
2022-11-02T08:46:39.592Z,100795.72
2022-11-02T08:49:28.982Z,100802.03
2022-11-02T08:52:20.861Z,100801.41
2022-11-02T08:55:10.268Z,100806.97
2022-11-02T08:58:02.216Z,100803.56
2022-11-02T09:00:54.331Z,100803.13
2022-11-02T09:03:44.047Z,100811.72
2022-11-02T09:06:33.732Z,100823.34
2022-11-02T09:09:22.713Z,100819.78
2022-11-02T09:12:11.748Z,100818.97
2022-11-02T09:15:04.352Z,100822.72
2022-11-02T09:17:54.984Z,100833.13
2022-11-02T09:20:43.841Z,100843.56
2022-11-02T09:23:32.955Z,100846.66
2022-11-02T09:26:22.048Z,100845.63
2022-11-02T09:29:11.547Z,100853.91
2022-11-02T09:32:00.939Z,100845.63
2022-11-02T09:34:51.508Z,100844.34
2022-11-02T09:37:40.551Z,100846.00
2022-11-02T09:40:53.901Z,100848.06
2022-11-02T09:43:58.287Z,100841.38
2022-11-02T09:46:53.264Z,100849.84
2022-11-02T09:50:00.044Z,100852.56
2022-11-02T09:52:55.698Z,100858.13
2022-11-02T09:55:56.711Z,100861.06
2022-11-02T09:58:49.255Z,100859.19
2022-11-02T10:02:00.297Z,100864.81
2022-11-02T10:05:10.262Z,100881.94
2022-11-02T10:08:13.680Z,100884.00
2022-11-02T10:11:29.018Z,100881.03
2022-11-02T10:14:35.607Z,100881.88
2022-11-02T10:17:30.977Z,100891.47
2022-11-02T10:20:31.214Z,100893.53
2022-11-02T10:23:27.516Z,100886.81
2022-11-02T10:26:24.135Z,100893.66
2022-11-02T10:29:28.238Z,100891.81
2022-11-02T10:32:18.009Z,100887.44
2022-11-02T10:35:45.735Z,100896.75
2022-11-02T10:39:18.035Z,100903.81
2022-11-02T10:42:22.666Z,100897.97
2022-11-02T10:45:17.850Z,100899.81
2022-11-02T10:48:36.595Z,100909.59
2022-11-02T10:51:25.828Z,100911.75
2022-11-02T10:54:20.636Z,100910.50
2022-11-02T10:57:16.085Z,100910.91
2022-11-02T11:00:30.451Z,100921.19
2022-11-02T11:03:20.855Z,100914.63
2022-11-02T11:06:12.170Z,100911.41
2022-11-02T11:09:13.648Z,100916.81
2022-11-02T11:12:23.095Z,100920.16
2022-11-02T11:21:51.008Z,100933.03
2022-11-02T11:24:40.121Z,100931.75
2022-11-02T11:27:29.532Z,100945.53
2022-11-02T11:30:58.854Z,100955.06
2022-11-02T11:34:01.099Z,100962.50
2022-11-02T11:36:50.251Z,100962.25
2022-11-02T11:39:41.952Z,100964.78
2022-11-02T11:42:35.270Z,100969.53
2022-11-02T11:45:28.252Z,100974.47
2022-11-02T11:48:26.373Z,100981.56
2022-11-02T11:51:30.392Z,100978.13
2022-11-02T11:54:25.578Z,100995.81
2022-11-02T11:57:34.711Z,101000.56
2022-11-02T12:00:29.252Z,101002.19
2022-11-02T12:03:18.353Z,101008.25
2022-11-02T12:06:19.111Z,101010.44
2022-11-02T12:09:26.747Z,101017.06
2022-11-02T12:12:45.302Z,101020.97
2022-11-02T12:15:53.191Z,101027.03
2022-11-02T12:19:29.862Z,101024.03
2022-11-02T12:22:42.818Z,101025.28
2022-11-02T12:25:50.057Z,101027.78
2022-11-02T12:28:46.967Z,101029.81
2022-11-02T12:31:43.709Z,101023.97
2022-11-02T12:35:27.188Z,101027.50
2022-11-02T12:38:14.329Z,101028.06
2022-11-02T12:41:31.581Z,101032.63
2022-11-02T12:44:42.030Z,101027.59
2022-11-02T12:48:07.617Z,101035.25
2022-11-02T12:51:34.186Z,101022.97
2022-11-02T12:54:41.609Z,101023.13
2022-11-02T12:57:54.888Z,101028.91
2022-11-02T13:00:53.687Z,101017.81
2022-11-02T13:04:05.775Z,101018.03
2022-11-02T13:07:13.639Z,101020.97
2022-11-02T13:10:26.973Z,101016.72
2022-11-02T13:16:58.882Z,101015.03
2022-11-02T13:20:06.767Z,101018.56
2022-11-02T13:27:02.170Z,101023.16
2022-11-02T13:30:20.891Z,101022.66
2022-11-02T13:37:04.157Z,101029.94
2022-11-02T13:40:01.815Z,101037.19
2022-11-02T13:43:14.752Z,101026.00
2022-11-02T13:46:46.197Z,101029.09
2022-11-02T13:49:48.679Z,101024.22
2022-11-02T13:52:50.505Z,101020.53
2022-11-02T13:56:25.435Z,101026.75
2022-11-02T13:59:43.110Z,101027.94
2022-11-02T14:02:40.116Z,101020.84
2022-11-02T14:05:47.554Z,101028.31
2022-11-02T14:09:00.695Z,101032.84
2022-11-02T14:12:24.492Z,101031.66
2022-11-02T14:15:41.785Z,101028.97
2022-11-02T14:18:38.264Z,101022.91
2022-11-02T14:22:13.305Z,101020.56
2022-11-02T14:25:20.483Z,101026.34
2022-11-02T14:28:29.838Z,101026.34
2022-11-02T14:31:43.621Z,101024.84
2022-11-02T14:38:33.731Z,101027.72
2022-11-02T14:41:59.712Z,101017.09
2022-11-02T14:45:20.601Z,101021.69
2022-11-02T14:48:25.710Z,101022.03
2022-11-02T14:51:50.590Z,101019.13
2022-11-02T14:55:15.553Z,101024.16
2022-11-02T14:58:14.807Z,101020.53
2022-11-02T15:01:10.149Z,101020.44
2022-11-02T15:04:23.801Z,101016.22
2022-11-02T15:07:50.433Z,101018.75
2022-11-02T15:10:56.430Z,101010.00
2022-11-02T15:13:55.929Z,101007.31
2022-11-02T15:16:50.235Z,101005.44
2022-11-02T15:19:59.421Z,101004.97
2022-11-02T15:26:42.245Z,101005.81
2022-11-02T15:29:49.223Z,100997.91
2022-11-02T15:33:01.239Z,100991.66
2022-11-02T15:35:58.407Z,100985.44
2022-11-02T15:38:57.062Z,100995.56
2022-11-02T15:42:34.219Z,100996.22
2022-11-02T15:46:01.152Z,100990.00
2022-11-02T15:49:17.457Z,100993.88
2022-11-02T15:52:15.370Z,100987.00
2022-11-02T15:55:22.058Z,100981.63
2022-11-02T15:58:43.067Z,100980.75
2022-11-02T16:01:32.804Z,100979.09
2022-11-02T16:04:23.421Z,100978.25
2022-11-02T16:07:16.716Z,100981.50
2022-11-02T16:10:24.005Z,100984.03
2022-11-02T16:13:18.992Z,100976.78
2022-11-02T16:16:09.717Z,100968.38
2022-11-02T16:18:59.392Z,100959.44
2022-11-02T16:21:49.889Z,100964.31
2022-11-02T16:24:44.661Z,100952.72
2022-11-02T16:27:33.476Z,100941.78
2022-11-02T16:30:24.272Z,100939.38
2022-11-02T16:33:14.001Z,100940.41
2022-11-02T16:36:07.337Z,100937.06
2022-11-02T16:39:32.978Z,100931.50
2022-11-02T16:42:26.298Z,100929.81
2022-11-02T16:45:37.111Z,100930.66
2022-11-02T16:48:31.786Z,100933.69
2022-11-02T16:51:21.136Z,100931.00
2022-11-02T16:54:31.360Z,100933.03
2022-11-02T16:57:23.745Z,100932.03
2022-11-02T17:00:22.835Z,100925.16
2022-11-02T17:03:16.535Z,100938.44
2022-11-02T17:06:08.254Z,100924.97
2022-11-02T17:08:58.722Z,100924.31
2022-11-02T17:11:47.691Z,100925.38
2022-11-02T17:14:36.937Z,100918.22
2022-11-02T17:17:27.322Z,100910.28
2022-11-02T17:20:17.881Z,100905.91
2022-11-02T17:23:09.157Z,100903.22
2022-11-02T17:26:26.503Z,100897.19
2022-11-02T17:29:27.630Z,100899.88
2022-11-02T17:32:17.521Z,100900.22
2022-11-02T17:35:08.188Z,100893.81
2022-11-02T17:37:59.169Z,100885.00
2022-11-02T17:40:53.510Z,100883.81
2022-11-02T17:43:42.941Z,100886.69
2022-11-02T17:46:34.679Z,100886.03
2022-11-02T17:49:23.742Z,100885.88
2022-11-02T17:52:15.782Z,100884.06
2022-11-02T17:55:05.128Z,100882.19
2022-11-02T17:57:56.084Z,100881.81
2022-11-02T18:00:46.160Z,100879.81
2022-11-02T18:03:35.813Z,100876.25
2022-11-02T18:06:25.438Z,100879.53
2022-11-02T18:09:20.609Z,100878.19
2022-11-02T18:12:17.958Z,100877.19
2022-11-02T18:15:22.366Z,100874.84
2022-11-02T18:18:11.371Z,100866.47
2022-11-02T18:21:00.528Z,100875.06
2022-11-02T18:23:49.914Z,100872.22
2022-11-02T18:26:42.750Z,100874.25
2022-11-02T18:29:35.779Z,100875.25
2022-11-02T18:32:24.818Z,100876.09
2022-11-02T18:35:16.962Z,100875.78
2022-11-02T18:38:06.514Z,100872.06
2022-11-02T18:41:30.789Z,100870.41
2022-11-02T18:44:19.668Z,100863.69
2022-11-02T18:47:10.398Z,100863.22
2022-11-02T18:50:01.100Z,100857.84
2022-11-02T18:52:52.326Z,100866.06
2022-11-02T18:55:42.543Z,100861.91
2022-11-02T18:58:32.254Z,100863.38
2022-11-02T19:01:22.405Z,100864.28
2022-11-02T19:04:17.181Z,100864.28
2022-11-02T19:07:25.363Z,100862.97
2022-11-02T19:10:17.708Z,100861.75
2022-11-02T19:13:07.162Z,100861.94
2022-11-02T19:15:56.433Z,100864.13
2022-11-02T19:18:46.421Z,100864.13
2022-11-02T19:21:36.472Z,100872.41
2022-11-02T19:24:26.297Z,100873.22
2022-11-02T19:27:24.394Z,100879.81
2022-11-02T19:30:14.721Z,100879.47
2022-11-02T19:33:04.097Z,100872.88
2022-11-02T19:35:57.923Z,100877.66
2022-11-02T19:39:05.639Z,100868.72
2022-11-02T19:41:55.403Z,100870.38
2022-11-02T19:44:44.521Z,100872.59
2022-11-02T19:47:45.513Z,100873.44
2022-11-02T19:50:34.842Z,100875.81
2022-11-02T19:53:24.113Z,100875.81
2022-11-02T19:56:15.038Z,100879.53
2022-11-02T19:59:05.131Z,100874.84
2022-11-02T20:01:54.293Z,100864.41
2022-11-02T20:04:48.718Z,100866.75
2022-11-02T20:07:37.930Z,100863.41
2022-11-02T20:10:27.654Z,100864.94
2022-11-02T20:13:16.719Z,100869.81
2022-11-02T20:16:06.810Z,100871.47
2022-11-02T20:18:56.976Z,100879.56
2022-11-02T20:21:45.996Z,100872.34
2022-11-02T20:24:34.867Z,100865.13
2022-11-02T20:27:24.230Z,100867.16
2022-11-02T20:30:23.295Z,100872.19
2022-11-02T20:33:13.031Z,100872.53
2022-11-02T20:36:05.947Z,100870.34
2022-11-02T20:38:55.285Z,100873.19
2022-11-02T20:41:44.981Z,100882.94
2022-11-02T20:44:34.972Z,100884.31
2022-11-02T20:47:24.562Z,100879.59
2022-11-02T20:50:16.625Z,100889.03
2022-11-02T20:53:06.868Z,100889.53
2022-11-02T20:55:59.995Z,100886.34
2022-11-02T20:58:55.686Z,100887.00
2022-11-02T21:01:44.929Z,100897.44
2022-11-02T21:04:34.719Z,100900.13
2022-11-02T21:07:26.612Z,100904.50
2022-11-02T21:10:16.712Z,100904.84
2022-11-02T21:13:23.933Z,100906.72
2022-11-02T21:16:13.303Z,100908.56
2022-11-02T21:19:02.736Z,100909.56
2022-11-02T21:21:56.562Z,100915.63
2022-11-02T21:24:49.039Z,100926.06
2022-11-02T21:27:38.015Z,100926.41
2022-11-02T21:30:27.468Z,100926.25
2022-11-02T21:33:17.016Z,100930.78
2022-11-02T21:36:06.543Z,100933.47
2022-11-02T21:38:56.851Z,100932.13
2022-11-02T21:41:46.207Z,100935.34
2022-11-02T21:44:35.359Z,100932.13
2022-11-02T21:47:24.758Z,100949.13
2022-11-02T21:50:13.628Z,100941.22
2022-11-02T21:53:06.627Z,100946.59
2022-11-02T21:56:04.045Z,100946.59
2022-11-02T21:58:53.514Z,100946.28
2022-11-02T22:01:51.046Z,100946.75
2022-11-02T22:04:42.669Z,100958.03
2022-11-02T22:07:54.835Z,100960.06
2022-11-02T22:10:48.371Z,100962.91
2022-11-02T22:13:40.065Z,100963.72
2022-11-02T22:16:35.627Z,100970.47
2022-11-02T22:19:26.557Z,100973.38
2022-11-02T22:22:16.952Z,100980.72
2022-11-02T22:25:07.404Z,100981.88
2022-11-02T22:28:01.326Z,100983.56
2022-11-02T22:30:51.222Z,100983.56
2022-11-02T22:33:41.245Z,100990.63
2022-11-02T22:36:32.669Z,100982.22
2022-11-02T22:39:22.132Z,100988.13
2022-11-02T22:42:11.626Z,100990.16
2022-11-02T22:45:01.773Z,100994.53
2022-11-02T22:47:51.092Z,101003.41
2022-11-02T22:50:43.037Z,101006.78
2022-11-02T22:53:32.016Z,100999.72
2022-11-02T22:56:23.844Z,101005.09
2022-11-02T22:59:14.071Z,101001.41
2022-11-02T23:02:05.884Z,101008.50
2022-11-02T23:04:56.343Z,101007.47
2022-11-02T23:07:46.003Z,101006.47
2022-11-02T23:10:56.278Z,101001.41
2022-11-02T23:13:46.898Z,101007.47
2022-11-02T23:16:38.528Z,101012.72
2022-11-02T23:19:30.293Z,101015.22
2022-11-02T23:22:34.590Z,101015.22
2022-11-02T23:25:23.931Z,101027.31
2022-11-02T23:28:31.061Z,101027.31
2022-11-02T23:31:38.064Z,101026.50
2022-11-02T23:34:29.976Z,101031.88
2022-11-02T23:37:20.279Z,101028.31
2022-11-02T23:40:10.089Z,101032.53
2022-11-02T23:42:59.060Z,101040.44
2022-11-02T23:45:48.690Z,101043.78
2022-11-02T23:48:39.263Z,101043.78
2022-11-02T23:51:51.385Z,101046.81
2022-11-02T23:54:58.850Z,101051.38
2022-11-02T23:57:48.464Z,101052.72
